Time;durP1;ratioP1;P1;durP2;ratioP2;P2;SDS_P1;SDS_P2;PMS_P1;PMS_P2;Temp;Humidity;BMP_temperature;BMP_pressure;BME280_temperature;BME280_humidity;BME280_pressure;Samples;Min_cycle;Max_cycle;Signal;HPM_P1;HPM_P2
2022/07/10 00:02:17;;;;;;;2.13;1.83;;;;;;;;;;5013351;28;20411;-55
2022/07/10 00:04:43;;;;;;;3.10;1.70;;;;;;;;;;5013441;28;20467;-55
2022/07/10 00:07:09;;;;;;;2.00;1.70;;;;;;;;;;5013445;28;20424;-56
2022/07/10 00:09:35;;;;;;;1.70;1.60;;;;;;;;;;5013342;28;20890;-56
2022/07/10 00:12:01;;;;;;;3.50;1.57;;;;;;;;;;5013226;28;20402;-56
2022/07/10 00:14:27;;;;;;;4.03;1.97;;;;;;;;;;5013291;28;20930;-56
2022/07/10 00:16:54;;;;;;;2.63;2.17;;;;;;;;;;5013413;28;20541;-55
2022/07/10 00:19:20;;;;;;;3.00;1.70;;;;;;;;;;5013348;28;20493;-55
2022/07/10 00:21:46;;;;;;;1.80;1.30;;;;;;;;;;5013057;28;20384;-56
2022/07/10 00:24:12;;;;;;;2.30;1.77;;;;;;;;;;5013204;28;20827;-56
2022/07/10 00:26:38;;;;;;;3.03;1.53;;;;;;;;;;5013242;28;20430;-56
2022/07/10 00:29:04;;;;;;;7.43;1.50;;;;;;;;;;5012972;28;20484;-55
2022/07/10 00:31:30;;;;;;;3.00;1.90;;;;;;;;;;5012945;28;20399;-55
2022/07/10 00:33:56;;;;;;;3.90;1.57;;;;;;;;;;5013230;28;20425;-55
2022/07/10 00:36:22;;;;;;;3.10;1.80;;;;;;;;;;5013029;28;20824;-56
2022/07/10 00:38:48;;;;;;;2.90;1.50;;;;;;;;;;5012837;28;20446;-56
2022/07/10 00:41:15;;;;;;;2.40;1.47;;;;;;;;;;5012661;28;20903;-56
2022/07/10 00:43:53;;;;;;;4.13;1.50;;;;;;;;;;5012825;28;20906;-56
2022/07/10 00:46:22;;;;;;;2.77;1.60;;;;;;;;;;5012820;28;20412;-55
2022/07/10 00:48:49;;;;;;;1.67;1.57;;;;;;;;;;5012836;28;20429;-55
2022/07/10 00:51:16;;;;;;;5.43;1.70;;;;;;;;;;5013034;28;20400;-55
2022/07/10 00:53:44;;;;;;;3.00;2.00;;;;;;;;;;5012464;28;20433;-55
2022/07/10 00:56:11;;;;;;;4.83;1.47;;;;;;;;;;5012632;28;20381;-55
2022/07/10 00:58:39;;;;;;;1.70;1.40;;;;;;;;;;5013158;28;20434;-55
2022/07/10 01:01:05;;;;;;;4.30;1.50;;;;;;;;;;5012056;28;20925;-55
2022/07/10 01:03:31;;;;;;;7.87;1.33;;;;;;;;;;5011617;28;20923;-55
2022/07/10 01:05:58;;;;;;;1.60;1.50;;;;;;;;;;5011785;28;20542;-55
2022/07/10 01:08:24;;;;;;;5.27;1.80;;;;;;;;;;5011636;28;20475;-56
2022/07/10 01:10:50;;;;;;;2.70;1.90;;;;;;;;;;5012948;28;20412;-54
2022/07/10 01:13:16;;;;;;;2.37;1.40;;;;;;;;;;5012319;28;20405;-52
2022/07/10 01:15:42;;;;;;;3.10;1.50;;;;;;;;;;5012297;28;20562;-55
2022/07/10 01:18:09;;;;;;;4.10;1.70;;;;;;;;;;5012170;28;20434;-53
2022/07/10 01:20:35;;;;;;;3.57;1.50;;;;;;;;;;5011902;28;20415;-52
2022/07/10 01:23:01;;;;;;;5.93;1.60;;;;;;;;;;5012370;28;20770;-53
2022/07/10 01:25:27;;;;;;;4.70;1.80;;;;;;;;;;5012163;28;20976;-52
2022/07/10 01:27:54;;;;;;;4.13;1.27;;;;;;;;;;5012244;28;20512;-52
2022/07/10 01:30:20;;;;;;;2.20;1.63;;;;;;;;;;5011844;28;20402;-52
2022/07/10 01:32:47;;;;;;;5.60;1.80;;;;;;;;;;5012176;28;20407;-52
2022/07/10 01:35:13;;;;;;;3.73;1.40;;;;;;;;;;5012008;28;20401;-52
2022/07/10 01:37:40;;;;;;;7.30;1.70;;;;;;;;;;5012213;28;20442;-53
2022/07/10 01:40:06;;;;;;;7.27;1.83;;;;;;;;;;5011791;28;20398;-54
2022/07/10 01:42:32;;;;;;;4.20;1.47;;;;;;;;;;5011921;28;20401;-54
2022/07/10 01:44:58;;;;;;;6.47;1.50;;;;;;;;;;5011914;28;20437;-54
2022/07/10 01:47:25;;;;;;;3.67;1.43;;;;;;;;;;5011834;28;20427;-52
2022/07/10 01:49:52;;;;;;;2.20;2.07;;;;;;;;;;5011800;28;20409;-52
2022/07/10 01:52:18;;;;;;;2.13;1.60;;;;;;;;;;5011802;28;20441;-52
2022/07/10 01:54:44;;;;;;;1.73;1.63;;;;;;;;;;5011886;28;20839;-52
2022/07/10 01:57:11;;;;;;;3.90;1.50;;;;;;;;;;5011850;28;20515;-53
2022/07/10 01:59:37;;;;;;;5.33;1.60;;;;;;;;;;5011815;28;20387;-52
2022/07/10 02:02:03;;;;;;;1.50;1.20;;;;;;;;;;5011639;28;20750;-52
2022/07/10 02:04:41;;;;;;;3.40;1.60;;;;;;;;;;5011730;28;20892;-52
2022/07/10 02:07:10;;;;;;;4.57;1.50;;;;;;;;;;5011744;28;20416;-53
2022/07/10 02:09:36;;;;;;;4.20;1.60;;;;;;;;;;5011758;28;20406;-53
2022/07/10 02:12:03;;;;;;;6.70;1.80;;;;;;;;;;5011517;28;20427;-53
2022/07/10 02:14:29;;;;;;;2.43;1.63;;;;;;;;;;5013606;28;20428;-54
2022/07/10 02:16:55;;;;;;;3.00;1.50;;;;;;;;;;5015319;28;20418;-54
2022/07/10 02:19:21;;;;;;;5.03;1.60;;;;;;;;;;5015512;28;20420;-52
2022/07/10 02:21:47;;;;;;;6.60;1.97;;;;;;;;;;5015231;28;20891;-54
2022/07/10 02:24:13;;;;;;;3.20;1.40;;;;;;;;;;5015356;28;20444;-53
2022/07/10 02:26:39;;;;;;;2.03;1.60;;;;;;;;;;5015360;28;20922;-54
2022/07/10 02:29:05;;;;;;;4.50;1.90;;;;;;;;;;5015202;28;20803;-52
2022/07/10 02:31:34;;;;;;;2.30;1.20;;;;;;;;;;5014903;28;20453;-52
2022/07/10 02:34:00;;;;;;;6.27;1.57;;;;;;;;;;5015277;28;20406;-53
2022/07/10 02:36:26;;;;;;;2.10;1.50;;;;;;;;;;5015208;28;20412;-55
2022/07/10 02:38:52;;;;;;;10.60;2.30;;;;;;;;;;5014968;28;20445;-52
2022/07/10 02:41:18;;;;;;;4.10;1.80;;;;;;;;;;5014815;28;20950;-52
2022/07/10 02:43:44;;;;;;;1.47;1.37;;;;;;;;;;5015054;28;20389;-52
2022/07/10 02:46:10;;;;;;;3.00;1.90;;;;;;;;;;5014848;28;20461;-52
2022/07/10 02:48:36;;;;;;;3.07;1.70;;;;;;;;;;5015042;28;20511;-53
2022/07/10 02:51:02;;;;;;;2.70;1.90;;;;;;;;;;5014709;28;20482;-52
2022/07/10 02:53:28;;;;;;;3.47;1.67;;;;;;;;;;5014913;28;20462;-52
2022/07/10 02:55:54;;;;;;;2.50;1.50;;;;;;;;;;5014839;28;20884;-53
2022/07/10 02:58:20;;;;;;;2.37;1.60;;;;;;;;;;5014615;28;20423;-54
2022/07/10 03:00:46;;;;;;;2.37;1.70;;;;;;;;;;5014395;28;20402;-54
2022/07/10 03:03:12;;;;;;;7.33;1.70;;;;;;;;;;5014684;28;20405;-54
2022/07/10 03:05:38;;;;;;;3.90;2.37;;;;;;;;;;5014669;28;20459;-53
2022/07/10 03:08:04;;;;;;;10.40;1.40;;;;;;;;;;5014528;28;20986;-52
2022/07/10 03:10:30;;;;;;;5.57;1.80;;;;;;;;;;5014295;28;20745;-52
2022/07/10 03:12:56;;;;;;;4.17;2.03;;;;;;;;;;5014472;28;20406;-53
2022/07/10 03:15:22;;;;;;;3.87;1.60;;;;;;;;;;5014371;28;20420;-53
2022/07/10 03:17:48;;;;;;;5.63;1.90;;;;;;;;;;5014376;28;20407;-53
2022/07/10 03:20:14;;;;;;;2.10;1.47;;;;;;;;;;5014463;28;20473;-53
2022/07/10 03:22:40;;;;;;;4.33;1.73;;;;;;;;;;5014538;28;20400;-53
2022/07/10 03:25:06;;;;;;;3.00;1.50;;;;;;;;;;5013165;28;20579;-52
2022/07/10 03:27:32;;;;;;;4.87;1.80;;;;;;;;;;5013862;28;20396;-53
2022/07/10 03:29:58;;;;;;;3.40;1.53;;;;;;;;;;5014060;28;20408;-53
2022/07/10 03:32:24;;;;;;;3.87;1.53;;;;;;;;;;5013912;28;20407;-52
2022/07/10 03:34:50;;;;;;;5.50;1.57;;;;;;;;;;5014115;28;20442;-52
2022/07/10 03:37:16;;;;;;;2.67;1.80;;;;;;;;;;5013860;28;20438;-52
2022/07/10 03:39:42;;;;;;;2.20;1.50;;;;;;;;;;5013963;28;20436;-52
2022/07/10 03:42:07;;;;;;;5.23;1.50;;;;;;;;;;5013731;28;20823;-52
2022/07/10 03:44:33;;;;;;;3.70;1.80;;;;;;;;;;5013693;28;20498;-52
2022/07/10 03:47:00;;;;;;;2.70;1.60;;;;;;;;;;5014016;28;20431;-52
2022/07/10 03:49:26;;;;;;;4.17;1.67;;;;;;;;;;5013869;28;20397;-54
2022/07/10 03:51:52;;;;;;;4.67;1.60;;;;;;;;;;5013544;28;20401;-52
2022/07/10 03:54:18;;;;;;;6.10;1.97;;;;;;;;;;5013518;28;20404;-55
2022/07/10 03:59:28;;;;;;;4.40;1.60;;;;;;;;;;5013617;28;20402;-54
2022/07/10 04:01:54;;;;;;;4.60;1.70;;;;;;;;;;5013201;28;20809;-55
2022/07/10 04:04:20;;;;;;;5.53;1.60;;;;;;;;;;5013521;28;20463;-54
2022/07/10 04:06:46;;;;;;;5.23;1.90;;;;;;;;;;5013519;28;20788;-52
2022/07/10 04:09:12;;;;;;;5.27;3.73;;;;;;;;;;5013665;28;20433;-52
2022/07/10 04:11:38;;;;;;;5.00;1.93;;;;;;;;;;5013168;28;20495;-52
2022/07/10 04:14:04;;;;;;;4.57;1.90;;;;;;;;;;5013398;28;20414;-52
2022/07/10 04:16:30;;;;;;;1.40;1.20;;;;;;;;;;5013233;28;20774;-52
2022/07/10 04:18:56;;;;;;;3.53;1.70;;;;;;;;;;5013192;28;20430;-54
2022/07/10 04:21:22;;;;;;;5.30;1.70;;;;;;;;;;5013001;28;20407;-53
2022/07/10 04:23:48;;;;;;;3.53;1.83;;;;;;;;;;5013182;28;20412;-54
2022/07/10 04:26:14;;;;;;;2.77;1.83;;;;;;;;;;5013106;28;20469;-55
2022/07/10 04:28:40;;;;;;;1.70;1.40;;;;;;;;;;5013059;28;20791;-52
2022/07/10 04:31:06;;;;;;;3.97;1.47;;;;;;;;;;5012810;28;20446;-52
2022/07/10 04:33:32;;;;;;;2.17;1.70;;;;;;;;;;5013131;28;20796;-52
2022/07/10 04:35:58;;;;;;;2.27;1.57;;;;;;;;;;5013029;28;20410;-52
2022/07/10 04:38:24;;;;;;;4.30;1.90;;;;;;;;;;5012459;28;20539;-53
2022/07/10 04:40:50;;;;;;;2.63;1.53;;;;;;;;;;5012612;28;20418;-52
2022/07/10 04:43:15;;;;;;;6.80;1.80;;;;;;;;;;5012846;28;20464;-53
2022/07/10 04:45:41;;;;;;;4.40;1.80;;;;;;;;;;5012694;28;20482;-54
2022/07/10 04:48:08;;;;;;;2.57;1.40;;;;;;;;;;5012737;28;20730;-55
2022/07/10 04:50:34;;;;;;;4.07;1.70;;;;;;;;;;5012460;28;20401;-53
2022/07/10 04:53:00;;;;;;;3.33;1.50;;;;;;;;;;5012719;28;20396;-53
2022/07/10 04:55:27;;;;;;;2.93;1.80;;;;;;;;;;5012417;28;20441;-53
2022/07/10 04:57:52;;;;;;;8.47;2.10;;;;;;;;;;5012528;28;20425;-53
2022/07/10 05:00:18;;;;;;;3.77;1.47;;;;;;;;;;5012273;28;20448;-53
2022/07/10 05:02:44;;;;;;;10.80;2.07;;;;;;;;;;5012527;28;20414;-53
2022/07/10 05:05:10;;;;;;;4.30;1.77;;;;;;;;;;5012419;28;20458;-53
2022/07/10 05:07:36;;;;;;;2.80;1.40;;;;;;;;;;5012443;28;20926;-52
2022/07/10 05:10:03;;;;;;;5.07;1.60;;;;;;;;;;5012251;28;20415;-52
2022/07/10 05:12:29;;;;;;;3.87;1.67;;;;;;;;;;5012069;28;20771;-52
2022/07/10 05:14:55;;;;;;;4.13;1.80;;;;;;;;;;5011621;28;20429;-53
2022/07/10 05:17:21;;;;;;;3.43;1.97;;;;;;;;;;5012176;28;20434;-54
2022/07/10 05:19:47;;;;;;;8.00;1.97;;;;;;;;;;5011989;28;20414;-52
2022/07/10 05:22:13;;;;;;;6.00;1.47;;;;;;;;;;5010372;28;20387;-53
2022/07/10 05:24:39;;;;;;;5.33;1.57;;;;;;;;;;5011286;28;20964;-53
2022/07/10 05:27:06;;;;;;;2.10;1.90;;;;;;;;;;5011517;28;20446;-53
2022/07/10 05:29:32;;;;;;;8.97;1.70;;;;;;;;;;5011606;28;20426;-53
2022/07/10 05:31:58;;;;;;;3.50;1.50;;;;;;;;;;5010991;28;20790;-53
2022/07/10 05:34:23;;;;;;;6.40;1.87;;;;;;;;;;5011493;28;20419;-52
2022/07/10 05:36:49;;;;;;;6.50;1.90;;;;;;;;;;5011445;28;20429;-52
2022/07/10 05:39:15;;;;;;;7.10;1.90;;;;;;;;;;5011793;28;20428;-53
2022/07/10 05:41:41;;;;;;;3.67;1.97;;;;;;;;;;5012006;28;20753;-53
2022/07/10 05:44:07;;;;;;;3.83;2.33;;;;;;;;;;5011039;28;20405;-55
2022/07/10 05:46:33;;;;;;;3.00;1.53;;;;;;;;;;5011399;28;20390;-52
2022/07/10 05:48:59;;;;;;;2.83;2.40;;;;;;;;;;5013066;28;21162;-54
2022/07/10 05:51:25;;;;;;;2.57;1.70;;;;;;;;;;5015824;28;20435;-53
2022/07/10 05:53:51;;;;;;;7.47;2.17;;;;;;;;;;5015261;28;20426;-53
2022/07/10 05:56:17;;;;;;;5.07;1.87;;;;;;;;;;5015960;28;20395;-54
2022/07/10 05:58:43;;;;;;;10.63;1.90;;;;;;;;;;5015637;28;20443;-53
2022/07/10 06:01:09;;;;;;;4.47;2.30;;;;;;;;;;5015502;28;20399;-52
2022/07/10 06:03:35;;;;;;;5.20;2.20;;;;;;;;;;5015195;28;20468;-52
2022/07/10 06:06:01;;;;;;;3.67;1.90;;;;;;;;;;5015380;28;21040;-52
2022/07/10 06:08:27;;;;;;;6.87;1.70;;;;;;;;;;5015658;28;20443;-52
2022/07/10 06:10:53;;;;;;;6.93;1.90;;;;;;;;;;5015129;28;20415;-52
2022/07/10 06:13:19;;;;;;;4.63;1.73;;;;;;;;;;5015123;28;20459;-52
2022/07/10 06:15:46;;;;;;;3.07;1.60;;;;;;;;;;5015174;28;20404;-52
2022/07/10 06:18:11;;;;;;;4.00;2.00;;;;;;;;;;5015346;28;20935;-52
2022/07/10 06:20:37;;;;;;;3.00;1.40;;;;;;;;;;5015067;28;20422;-52
2022/07/10 06:23:03;;;;;;;4.63;1.50;;;;;;;;;;5014879;28;20902;-54
2022/07/10 06:25:29;;;;;;;7.17;2.07;;;;;;;;;;5015090;28;20470;-53
2022/07/10 06:27:55;;;;;;;3.07;1.37;;;;;;;;;;5015106;28;20418;-53
2022/07/10 06:30:21;;;;;;;3.10;1.70;;;;;;;;;;5014625;28;20414;-54
2022/07/10 06:32:48;;;;;;;8.27;2.07;;;;;;;;;;5014740;28;20415;-55
2022/07/10 06:35:14;;;;;;;5.00;2.10;;;;;;;;;;5015034;28;20399;-52
2022/07/10 06:37:40;;;;;;;7.07;1.30;;;;;;;;;;5014637;28;20465;-56
2022/07/10 06:40:07;;;;;;;5.63;2.00;;;;;;;;;;5014399;28;20507;-56
2022/07/10 06:42:33;;;;;;;3.43;1.13;;;;;;;;;;5014899;28;20430;-56
2022/07/10 06:44:59;;;;;;;5.57;1.90;;;;;;;;;;5013869;28;20460;-53
2022/07/10 06:50:10;;;;;;;7.13;1.70;;;;;;;;;;5014399;28;20502;-54
2022/07/10 06:52:36;;;;;;;2.50;1.10;;;;;;;;;;5014866;28;20376;-54
2022/07/10 06:55:03;;;;;;;2.80;1.73;;;;;;;;;;5013678;28;20513;-53
2022/07/10 06:57:29;;;;;;;2.30;1.40;;;;;;;;;;5014804;28;20431;-52
2022/07/10 06:59:55;;;;;;;4.10;1.43;;;;;;;;;;5014022;28;20404;-52
2022/07/10 07:02:21;;;;;;;4.03;2.40;;;;;;;;;;5014132;28;20426;-54
2022/07/10 07:04:47;;;;;;;3.43;1.60;;;;;;;;;;5015408;28;20553;-52
2022/07/10 07:07:14;;;;;;;4.60;2.60;;;;;;;;;;5014472;28;20422;-53
2022/07/10 07:09:40;;;;;;;2.07;1.40;;;;;;;;;;5014598;28;20463;-53
2022/07/10 07:12:06;;;;;;;5.43;1.60;;;;;;;;;;5014986;28;20438;-56
2022/07/10 07:14:33;;;;;;;2.13;1.47;;;;;;;;;;5014580;28;20899;-56
2022/07/10 07:17:09;;;;;;;9.30;1.77;;;;;;;;;;5014415;28;20427;-56
2022/07/10 07:25:06;;;;;;;2.90;1.70;;;;;;;;;;5014268;28;20465;-56
2022/07/10 07:27:33;;;;;;;2.17;1.50;;;;;;;;;;5014218;28;20409;-56
2022/07/10 07:30:02;;;;;;;8.83;1.63;;;;;;;;;;5014219;28;20403;-56
2022/07/10 07:32:28;;;;;;;3.73;1.73;;;;;;;;;;5013907;28;20406;-56
2022/07/10 07:34:54;;;;;;;8.53;1.90;;;;;;;;;;5014013;28;20874;-56
2022/07/10 07:37:20;;;;;;;8.70;2.20;;;;;;;;;;5013879;28;20467;-56
2022/07/10 07:39:46;;;;;;;3.30;1.80;;;;;;;;;;5014031;28;20456;-56
2022/07/10 07:42:12;;;;;;;3.53;1.80;;;;;;;;;;5013958;28;20419;-55
2022/07/10 07:44:38;;;;;;;4.10;1.93;;;;;;;;;;5007111;28;20553;-56
2022/07/10 07:47:04;;;;;;;4.00;1.70;;;;;;;;;;5013327;28;20416;-56
2022/07/10 07:49:30;;;;;;;3.27;1.50;;;;;;;;;;5013615;28;20370;-56
2022/07/10 07:51:56;;;;;;;5.03;1.43;;;;;;;;;;5013506;28;20413;-56
2022/07/10 07:54:22;;;;;;;6.87;1.60;;;;;;;;;;5012257;28;20411;-55
2022/07/10 07:56:48;;;;;;;3.50;1.70;;;;;;;;;;5012991;28;20390;-56
2022/07/10 07:59:14;;;;;;;3.73;1.53;;;;;;;;;;5013588;28;20893;-56
2022/07/10 08:01:40;;;;;;;7.03;1.50;;;;;;;;;;5013183;28;20404;-56
2022/07/10 08:04:06;;;;;;;5.17;2.13;;;;;;;;;;5013200;28;20407;-56
2022/07/10 08:06:32;;;;;;;8.30;2.53;;;;;;;;;;5013419;28;20403;-56
2022/07/10 08:08:58;;;;;;;3.00;1.77;;;;;;;;;;5013365;28;20454;-56
2022/07/10 08:11:24;;;;;;;4.17;1.83;;;;;;;;;;5012697;28;20780;-56
2022/07/10 08:13:50;;;;;;;8.23;1.67;;;;;;;;;;5013433;28;20428;-56
2022/07/10 08:16:16;;;;;;;4.97;1.83;;;;;;;;;;5013372;28;20393;-56
2022/07/10 08:18:42;;;;;;;3.53;2.00;;;;;;;;;;5013194;28;20492;-56
2022/07/10 08:21:07;;;;;;;7.03;1.87;;;;;;;;;;5013236;28;20434;-56
2022/07/10 08:23:33;;;;;;;10.73;1.80;;;;;;;;;;5013238;28;20852;-56
2022/07/10 08:25:59;;;;;;;2.57;1.20;;;;;;;;;;5013161;28;20466;-56
2022/07/10 08:28:25;;;;;;;2.80;2.00;;;;;;;;;;5013163;28;20432;-56
2022/07/10 08:30:51;;;;;;;3.20;1.53;;;;;;;;;;5012876;28;20472;-56
2022/07/10 08:33:17;;;;;;;4.03;1.93;;;;;;;;;;5013012;28;20396;-56
2022/07/10 08:35:44;;;;;;;4.30;1.90;;;;;;;;;;5013008;28;20374;-56
2022/07/10 08:38:10;;;;;;;4.07;2.37;;;;;;;;;;5012604;28;20457;-56
2022/07/10 08:40:36;;;;;;;5.00;1.73;;;;;;;;;;5012546;28;20803;-56
2022/07/10 08:43:02;;;;;;;2.07;1.30;;;;;;;;;;5012775;28;20419;-56
2022/07/10 08:45:31;;;;;;;2.83;2.07;;;;;;;;;;5012652;28;20442;-56
2022/07/10 08:47:59;;;;;;;2.47;1.70;;;;;;;;;;5012540;28;20416;-56
2022/07/10 08:50:25;;;;;;;4.97;1.67;;;;;;;;;;5012406;28;20804;-56
2022/07/10 08:52:55;;;;;;;2.77;1.97;;;;;;;;;;5012653;28;20422;-55
2022/07/10 08:55:22;;;;;;;5.13;2.10;;;;;;;;;;5012557;28;20493;-56
2022/07/10 08:57:49;;;;;;;2.53;2.23;;;;;;;;;;5012498;28;20937;-56
2022/07/10 09:00:16;;;;;;;2.40;1.90;;;;;;;;;;5012338;28;20875;-56
2022/07/10 09:02:42;;;;;;;1.80;1.57;;;;;;;;;;5012709;28;20404;-56
2022/07/10 09:05:08;;;;;;;5.70;1.77;;;;;;;;;;5012423;28;20456;-55
2022/07/10 09:07:36;;;;;;;5.00;2.23;;;;;;;;;;5012477;28;20907;-55
2022/07/10 09:10:05;;;;;;;22.70;5.03;;;;;;;;;;5012393;28;20909;-56
2022/07/10 09:12:48;;;;;;;8.00;3.03;;;;;;;;;;5012380;28;20415;-56
2022/07/10 09:15:19;;;;;;;7.83;4.50;;;;;;;;;;5012710;28;20757;-55
2022/07/10 09:17:54;;;;;;;6.13;3.90;;;;;;;;;;5012327;28;20833;-56
2022/07/10 09:20:32;;;;;;;5.13;4.60;;;;;;;;;;5012358;28;20421;-55
2022/07/10 09:22:59;;;;;;;5.00;4.13;;;;;;;;;;5012282;28;20403;-56
2022/07/10 09:25:31;;;;;;;6.70;4.73;;;;;;;;;;5012364;28;20752;-56
2022/07/10 09:27:59;;;;;;;7.13;4.63;;;;;;;;;;5010932;28;20426;-56
2022/07/10 09:30:32;;;;;;;5.40;4.90;;;;;;;;;;5011957;28;20366;-56
2022/07/10 09:33:25;;;;;;;9.30;5.10;;;;;;;;;;5012123;28;20899;-56
2022/07/10 09:36:10;;;;;;;6.60;4.07;;;;;;;;;;5010175;28;20397;-56
2022/07/10 09:38:46;;;;;;;7.00;5.10;;;;;;;;;;5011892;28;20425;-56
2022/07/10 09:41:16;;;;;;;4.17;3.80;;;;;;;;;;5011914;28;20881;-56
2022/07/10 09:43:48;;;;;;;5.83;3.60;;;;;;;;;;5012055;28;20399;-56
2022/07/10 09:46:14;;;;;;;5.23;4.10;;;;;;;;;;5012330;28;20458;-56
2022/07/10 09:48:41;;;;;;;3.73;3.43;;;;;;;;;;5010566;28;20443;-56
2022/07/10 09:51:11;;;;;;;7.33;3.90;;;;;;;;;;5011639;28;20389;-56
2022/07/10 09:53:45;;;;;;;5.20;3.90;;;;;;;;;;5012200;28;20407;-56
2022/07/10 09:56:12;;;;;;;4.10;3.37;;;;;;;;;;5011944;28;20485;-56
2022/07/10 09:58:39;;;;;;;5.07;3.60;;;;;;;;;;5011452;28;20446;-55
2022/07/10 10:01:05;;;;;;;3.40;3.10;;;;;;;;;;5021874;28;20894;-56
2022/07/10 10:03:35;;;;;;;3.70;3.40;;;;;;;;;;5031559;28;20402;-56
2022/07/10 10:06:03;;;;;;;8.80;3.90;;;;;;;;;;5031420;28;20519;-55
2022/07/10 10:08:37;;;;;;;4.10;3.30;;;;;;;;;;5031515;28;20415;-56
2022/07/10 10:11:05;;;;;;;3.10;2.90;;;;;;;;;;5031348;28;20467;-56
2022/07/10 10:13:31;;;;;;;4.53;2.43;;;;;;;;;;5031812;28;20410;-56
2022/07/10 10:15:57;;;;;;;2.60;2.40;;;;;;;;;;5031353;28;20410;-56
2022/07/10 10:18:24;;;;;;;3.33;3.00;;;;;;;;;;5031274;28;20397;-56
2022/07/10 10:20:51;;;;;;;9.10;3.30;;;;;;;;;;5029988;28;20943;-56
2022/07/10 10:23:18;;;;;;;3.57;3.03;;;;;;;;;;5031320;28;20857;-56
2022/07/10 10:25:44;;;;;;;3.03;2.73;;;;;;;;;;5031296;28;20454;-56
2022/07/10 10:28:12;;;;;;;3.00;2.40;;;;;;;;;;5031186;28;20421;-56
2022/07/10 10:30:39;;;;;;;5.50;3.57;;;;;;;;;;5031049;28;20381;-55
2022/07/10 10:33:25;;;;;;;4.37;2.87;;;;;;;;;;5031321;28;20429;-56
2022/07/10 10:35:51;;;;;;;5.90;3.40;;;;;;;;;;5033713;28;20389;-56
2022/07/10 10:38:17;;;;;;;2.57;2.40;;;;;;;;;;5034622;28;20419;-56
2022/07/10 10:40:43;;;;;;;3.47;3.10;;;;;;;;;;5034603;28;20422;-56
2022/07/10 10:43:23;;;;;;;3.10;2.77;;;;;;;;;;5000079;28;20504;-56
2022/07/10 10:45:49;;;;;;;6.57;2.80;;;;;;;;;;4995456;28;20464;-56
2022/07/10 10:48:17;;;;;;;3.17;2.90;;;;;;;;;;4995314;28;20422;-56
2022/07/10 10:50:43;;;;;;;4.93;3.47;;;;;;;;;;4994709;28;20379;-56
2022/07/10 10:53:15;;;;;;;4.23;3.87;;;;;;;;;;4995238;28;20403;-56
2022/07/10 10:55:42;;;;;;;5.77;4.50;;;;;;;;;;4995344;28;20400;-56
2022/07/10 10:58:16;;;;;;;6.30;5.23;;;;;;;;;;4995376;28;20399;-56
2022/07/10 11:00:42;;;;;;;10.83;6.50;;;;;;;;;;4994913;28;20389;-56
2022/07/10 11:03:18;;;;;;;6.17;5.67;;;;;;;;;;4995159;28;20738;-56
2022/07/10 11:05:45;;;;;;;7.87;5.60;;;;;;;;;;4995059;28;20966;-56
2022/07/10 11:08:12;;;;;;;8.37;6.30;;;;;;;;;;4995149;28;20888;-56
2022/07/10 11:10:42;;;;;;;7.03;6.40;;;;;;;;;;4994796;28;20430;-56
2022/07/10 11:13:12;;;;;;;11.63;7.00;;;;;;;;;;4994959;28;20451;-56
2022/07/10 11:15:42;;;;;;;7.97;7.00;;;;;;;;;;4994888;28;20428;-56
2022/07/10 11:18:15;;;;;;;8.40;7.70;;;;;;;;;;4994750;28;20402;-56
2022/07/10 11:20:42;;;;;;;7.23;6.50;;;;;;;;;;5003389;28;20423;-56
2022/07/10 11:23:17;;;;;;;9.70;8.00;;;;;;;;;;5014320;28;20417;-56
2022/07/10 11:26:07;;;;;;;8.20;7.40;;;;;;;;;;5014191;28;20877;-56
2022/07/10 11:28:52;;;;;;;8.77;7.60;;;;;;;;;;5014130;28;20453;-56
2022/07/10 11:31:18;;;;;;;7.50;6.77;;;;;;;;;;5013796;28;20828;-56
2022/07/10 11:33:46;;;;;;;8.40;7.30;;;;;;;;;;5014040;28;20444;-56
2022/07/10 11:36:13;;;;;;;7.83;6.33;;;;;;;;;;5013498;28;20399;-56
2022/07/10 11:38:39;;;;;;;6.37;5.80;;;;;;;;;;5013763;28;20443;-55
2022/07/10 11:41:12;;;;;;;8.60;6.77;;;;;;;;;;5013681;28;20514;-55
2022/07/10 11:43:45;;;;;;;8.40;7.70;;;;;;;;;;5013924;28;20925;-56
2022/07/10 11:46:11;;;;;;;8.80;7.90;;;;;;;;;;5012797;28;20553;-56
2022/07/10 11:48:40;;;;;;;10.63;7.80;;;;;;;;;;5013618;28;20825;-56
2022/07/10 11:51:16;;;;;;;12.03;8.00;;;;;;;;;;5013463;28;20398;-56
2022/07/10 11:53:52;;;;;;;9.97;8.90;;;;;;;;;;5013784;28;20741;-56
2022/07/10 11:56:19;;;;;;;10.27;7.90;;;;;;;;;;5013722;28;20412;-55
2022/07/10 11:58:53;;;;;;;12.17;9.90;;;;;;;;;;5013618;28;20581;-56
2022/07/10 12:01:19;;;;;;;13.50;10.47;;;;;;;;;;5013298;28;20432;-56
2022/07/10 12:03:45;;;;;;;14.47;9.37;;;;;;;;;;5013405;28;20873;-55
2022/07/10 12:06:11;;;;;;;12.40;9.80;;;;;;;;;;5013713;28;20894;-56
2022/07/10 12:08:44;;;;;;;12.67;10.77;;;;;;;;;;5013438;28;20804;-56
2022/07/10 12:11:17;;;;;;;14.60;11.73;;;;;;;;;;5013694;28;20412;-56
2022/07/10 12:13:44;;;;;;;14.67;11.43;;;;;;;;;;5015078;28;20405;-56
2022/07/10 12:16:11;;;;;;;14.53;11.03;;;;;;;;;;5014911;28;20378;-57
2022/07/10 12:18:37;;;;;;;16.60;11.20;;;;;;;;;;5015053;28;20423;-56
2022/07/10 12:21:03;;;;;;;18.70;11.93;;;;;;;;;;5013911;28;20413;-57
2022/07/10 12:23:30;;;;;;;14.80;10.87;;;;;;;;;;5013556;28;20490;-56
2022/07/10 12:25:56;;;;;;;13.57;11.80;;;;;;;;;;5013223;28;20525;-56
2022/07/10 12:28:22;;;;;;;17.60;11.50;;;;;;;;;;5013064;28;20481;-56
2022/07/10 12:30:49;;;;;;;15.00;11.00;;;;;;;;;;5012682;28;20382;-56
2022/07/10 12:33:18;;;;;;;16.17;12.10;;;;;;;;;;5013053;28;20487;-56
2022/07/10 12:35:47;;;;;;;10.97;9.33;;;;;;;;;;5013002;28;20889;-55
2022/07/10 12:38:20;;;;;;;10.53;9.43;;;;;;;;;;5012461;28;20484;-56
2022/07/10 12:40:46;;;;;;;5.43;4.60;;;;;;;;;;5013711;28;20387;-57
2022/07/10 12:43:12;;;;;;;5.23;4.80;;;;;;;;;;5012440;28;20377;-56
2022/07/10 12:45:38;;;;;;;3.80;3.50;;;;;;;;;;5012007;28;20554;-56
2022/07/10 12:48:08;;;;;;;4.13;3.83;;;;;;;;;;5011908;28;20953;-56
2022/07/10 12:50:34;;;;;;;3.90;3.60;;;;;;;;;;5011744;28;20782;-57
2022/07/10 12:53:13;;;;;;;4.30;3.87;;;;;;;;;;5013422;28;20402;-57
2022/07/10 12:55:41;;;;;;;4.73;4.47;;;;;;;;;;5012246;28;20418;-57
2022/07/10 12:58:11;;;;;;;4.20;3.80;;;;;;;;;;5011512;28;20430;-57
2022/07/10 13:00:43;;;;;;;3.90;3.60;;;;;;;;;;5012264;28;20411;-57
2022/07/10 13:03:10;;;;;;;6.13;3.83;;;;;;;;;;5012642;28;20435;-57
2022/07/10 13:05:40;;;;;;;3.10;2.90;;;;;;;;;;5012095;28;20447;-56
2022/07/10 13:08:24;;;;;;;5.80;2.60;;;;;;;;;;5012305;28;20421;-56
2022/07/10 13:10:51;;;;;;;2.57;2.37;;;;;;;;;;5012741;28;20400;-52
2022/07/10 13:13:17;;;;;;;2.40;2.20;;;;;;;;;;5011570;28;20407;-55
2022/07/10 13:15:50;;;;;;;2.17;2.07;;;;;;;;;;5011488;28;20414;-53
2022/07/10 13:18:21;;;;;;;5.63;2.70;;;;;;;;;;5011535;28;20449;-52
2022/07/10 13:20:47;;;;;;;2.80;2.20;;;;;;;;;;5011160;28;20474;-52
2022/07/10 13:23:13;;;;;;;3.73;3.33;;;;;;;;;;5011509;28;20448;-52
2022/07/10 13:25:39;;;;;;;4.73;4.33;;;;;;;;;;5011386;28;20494;-52
2022/07/10 13:28:06;;;;;;;3.33;3.13;;;;;;;;;;5011374;28;20434;-52
2022/07/10 13:30:32;;;;;;;2.30;2.20;;;;;;;;;;5011111;28;20397;-53
2022/07/10 13:32:58;;;;;;;2.60;2.50;;;;;;;;;;5011385;28;20450;-52
2022/07/10 13:35:27;;;;;;;2.67;2.27;;;;;;;;;;5008618;28;20479;-52
2022/07/10 13:37:53;;;;;;;2.50;2.30;;;;;;;;;;4974078;28;1081504;-55
2022/07/10 13:40:19;;;;;;;1.80;1.70;;;;;;;;;;5011891;28;20455;-53
2022/07/10 13:42:45;;;;;;;1.90;1.80;;;;;;;;;;5011954;28;20549;-52
2022/07/10 13:45:11;;;;;;;2.43;2.23;;;;;;;;;;5011881;28;20451;-52
2022/07/10 13:47:37;;;;;;;3.07;2.77;;;;;;;;;;5011931;28;20513;-52
2022/07/10 13:50:03;;;;;;;2.10;2.00;;;;;;;;;;5011276;28;20859;-53
2022/07/10 13:52:29;;;;;;;2.10;2.00;;;;;;;;;;5011592;28;20429;-52
2022/07/10 13:54:55;;;;;;;2.03;1.93;;;;;;;;;;5010985;28;20495;-54
2022/07/10 13:57:21;;;;;;;3.03;2.17;;;;;;;;;;5010715;28;20801;-54
2022/07/10 13:59:47;;;;;;;2.10;1.90;;;;;;;;;;5011413;28;20411;-56
2022/07/10 14:02:13;;;;;;;2.43;2.23;;;;;;;;;;5011719;28;20383;-56
2022/07/10 14:04:39;;;;;;;2.37;2.13;;;;;;;;;;5011380;28;20487;-56
2022/07/10 14:07:05;;;;;;;2.90;2.70;;;;;;;;;;5011998;28;20423;-56
2022/07/10 14:09:31;;;;;;;2.50;2.30;;;;;;;;;;5011954;28;20390;-56
2022/07/10 14:11:57;;;;;;;2.20;2.10;;;;;;;;;;5015471;28;20485;-56
2022/07/10 14:14:23;;;;;;;2.27;2.13;;;;;;;;;;5015641;28;20400;-56
2022/07/10 14:16:51;;;;;;;2.60;2.17;;;;;;;;;;5015547;28;20392;-56
2022/07/10 14:19:17;;;;;;;2.90;2.10;;;;;;;;;;5015513;28;20403;-57
2022/07/10 14:21:43;;;;;;;2.40;2.20;;;;;;;;;;5015305;28;20403;-56
2022/07/10 14:24:09;;;;;;;1.70;1.60;;;;;;;;;;5015398;28;20429;-55
2022/07/10 14:26:35;;;;;;;2.33;2.03;;;;;;;;;;5015291;28;20480;-57
2022/07/10 14:29:03;;;;;;;1.70;1.60;;;;;;;;;;5015396;28;20877;-56
2022/07/10 14:31:29;;;;;;;1.87;1.67;;;;;;;;;;5015099;28;20467;-56
2022/07/10 14:33:55;;;;;;;1.90;1.80;;;;;;;;;;5015391;28;20400;-56
2022/07/10 14:36:26;;;;;;;2.00;1.87;;;;;;;;;;5015316;28;20397;-56
2022/07/10 14:38:56;;;;;;;1.73;1.63;;;;;;;;;;5012253;28;20454;-56
2022/07/10 14:41:24;;;;;;;2.30;1.93;;;;;;;;;;5011843;28;20422;-57
2022/07/10 14:43:50;;;;;;;2.23;1.97;;;;;;;;;;5015075;28;20777;-56
2022/07/10 14:46:16;;;;;;;3.20;2.10;;;;;;;;;;5014921;28;20457;-55
2022/07/10 14:48:42;;;;;;;1.90;1.80;;;;;;;;;;5014924;28;20781;-56
2022/07/10 14:51:08;;;;;;;2.50;1.87;;;;;;;;;;5014321;28;20399;-56
2022/07/10 14:53:35;;;;;;;2.70;2.10;;;;;;;;;;5013392;28;20405;-55